馬公航空站 - ATIS

METAR RCQC 130730Z 33009KT 9999 FEW012 SCT021 31/25 Q1010 NOSIG RMK A2985=

站台狀態:Offline
最後更新:2020-08-13 15:30:01